Time;durP1;ratioP1;P1;durP2;ratioP2;P2;SDS_P1;SDS_P2;PMS_P1;PMS_P2;Temp;Humidity;BMP_temperature;BMP_pressure;BME280_temperature;BME280_humidity;BME280_pressure;Samples;Min_cycle;Max_cycle;Signal;HPM_P1;HPM_P2
2022/11/14 00:00:48;;;;;;;92.02;54.88;;;;;;;2.07;73.48;98263.83;1735334;82;25717;-73
2022/11/14 00:03:15;;;;;;;93.92;55.63;;;;;;;2.03;73.54;98268.25;1735682;82;25744;-73
2022/11/14 00:05:44;;;;;;;94.75;55.67;;;;;;;2.00;73.49;98265.85;1735708;82;25722;-73
2022/11/14 00:08:18;;;;;;;102.47;54.77;;;;;;;1.97;73.49;98264.78;1735642;82;25900;-73
2022/11/14 00:10:47;;;;;;;97.78;54.40;;;;;;;1.93;73.53;98262.06;1735578;82;27384;-75
2022/11/14 00:13:15;;;;;;;105.87;55.12;;;;;;;1.90;73.54;98263.66;1746767;82;25853;-74
2022/11/14 00:15:43;;;;;;;102.67;54.88;;;;;;;1.86;73.55;98262.23;1687706;85;25327;-73
2022/11/14 00:18:09;;;;;;;91.42;55.50;;;;;;;1.84;73.69;98263.70;1747152;82;25540;-72
2022/11/14 00:20:36;;;;;;;107.40;59.42;;;;;;;1.83;73.78;98259.35;1687768;85;25984;-73
2022/11/14 00:23:03;;;;;;;107.52;59.13;;;;;;;1.83;73.83;98258.51;1747133;82;28199;-71
2022/11/14 00:25:30;;;;;;;101.72;57.83;;;;;;;1.81;73.89;98260.81;1686450;85;25545;-75
2022/11/14 00:27:58;;;;;;;95.40;59.55;;;;;;;1.80;73.89;98267.63;1695409;84;25704;-74
2022/11/14 00:30:26;;;;;;;102.72;60.38;;;;;;;1.78;73.93;98270.91;1685496;85;26558;-73
2022/11/14 00:32:53;;;;;;;110.52;64.70;;;;;;;1.77;74.00;98274.55;1695549;84;25807;-75
2022/11/14 00:35:19;;;;;;;132.72;73.50;;;;;;;1.76;73.99;98270.20;1685822;85;28015;-72
2022/11/14 00:37:46;;;;;;;112.68;66.37;;;;;;;1.74;74.12;98271.66;1695443;84;25798;-75
2022/11/14 00:40:13;;;;;;;124.47;66.40;;;;;;;1.72;74.15;98273.61;1685797;85;25728;-72
2022/11/14 00:42:40;;;;;;;106.80;58.75;;;;;;;1.70;74.23;98267.58;1695586;84;26519;-74
2022/11/14 00:45:07;;;;;;;109.00;59.58;;;;;;;1.70;74.28;98268.91;1685794;85;25786;-73
2022/11/14 00:47:33;;;;;;;95.45;51.10;;;;;;;1.69;74.29;98271.22;1695577;84;27384;-73
2022/11/14 00:50:00;;;;;;;85.12;49.90;;;;;;;1.67;74.34;98263.87;1685819;85;25807;-76
2022/11/14 00:52:26;;;;;;;89.05;52.65;;;;;;;1.66;74.34;98263.52;1695491;84;25818;-76
2022/11/14 00:54:53;;;;;;;92.15;51.92;;;;;;;1.66;74.43;98260.86;1685839;85;25897;-72
2022/11/14 00:57:19;;;;;;;86.85;52.93;;;;;;;1.65;74.42;98255.18;1695595;84;25719;-73
2022/11/14 00:59:46;;;;;;;94.85;57.90;;;;;;;1.66;74.44;98256.87;1685803;85;28253;-73
2022/11/14 01:02:12;;;;;;;100.27;59.40;;;;;;;1.63;74.40;98259.80;1695588;84;25705;-74
2022/11/14 01:04:39;;;;;;;96.47;57.83;;;;;;;1.59;74.37;98251.71;1685765;85;25846;-73
2022/11/14 01:07:06;;;;;;;100.30;59.27;;;;;;;1.59;74.46;98254.86;1695521;84;25727;-73
2022/11/14 01:09:32;;;;;;;101.18;59.33;;;;;;;1.58;74.57;98258.01;1685943;85;26480;-73
2022/11/14 01:11:59;;;;;;;85.85;50.70;;;;;;;1.58;74.66;98252.69;1695426;84;28032;-72
2022/11/14 01:14:25;;;;;;;76.70;47.13;;;;;;;1.57;74.57;98251.00;1685762;85;25799;-75
2022/11/14 01:16:52;;;;;;;72.72;46.13;;;;;;;1.56;74.58;98248.02;1723786;82;25734;-76
2022/11/14 01:19:18;;;;;;;73.65;44.83;;;;;;;1.54;74.60;98239.31;1746287;82;26359;-73
2022/11/14 01:21:45;;;;;;;87.57;51.30;;;;;;;1.47;74.55;98239.97;1746342;82;25866;-74
2022/11/14 01:24:12;;;;;;;89.65;53.85;;;;;;;1.42;74.55;98238.58;1746271;81;28330;-72
2022/11/14 01:26:38;;;;;;;90.50;55.08;;;;;;;1.41;74.48;98238.22;1746011;81;25890;-75
2022/11/14 01:29:05;;;;;;;99.42;63.95;;;;;;;1.39;74.46;98226.86;1746079;82;25645;-73
2022/11/14 01:31:31;;;;;;;91.10;60.55;;;;;;;1.41;74.48;98237.38;1746336;82;25707;-72
2022/11/14 01:33:58;;;;;;;91.53;63.48;;;;;;;1.40;74.49;98228.55;1746391;82;25638;-72
2022/11/14 01:36:24;;;;;;;85.87;55.85;;;;;;;1.39;74.49;98229.52;1746270;82;27355;-73
2022/11/14 01:38:53;;;;;;;85.87;53.40;;;;;;;1.38;74.48;98226.99;1746414;82;25765;-73
2022/11/14 01:41:20;;;;;;;84.35;49.45;;;;;;;1.36;74.54;98220.95;1746375;82;25737;-73
2022/11/14 01:43:47;;;;;;;79.47;51.95;;;;;;;1.36;74.64;98221.80;1746398;82;25694;-75
2022/11/14 01:46:30;;;;;;;70.72;49.23;;;;;;;1.35;74.65;98219.27;1746336;81;25760;-73
2022/11/14 01:49:07;;;;;;;68.97;45.80;;;;;;;1.32;74.63;98216.91;1687761;84;28167;-75
2022/11/14 01:51:50;;;;;;;68.87;44.70;;;;;;;1.24;74.51;98222.88;1684013;85;25759;-76
2022/11/14 01:54:31;;;;;;;67.67;45.88;;;;;;;1.21;74.62;98219.66;1687757;85;25734;-72
2022/11/14 01:57:01;;;;;;;65.50;40.73;;;;;;;1.16;74.62;98219.20;1711837;83;25734;-75
2022/11/14 01:59:35;;;;;;;60.30;40.20;;;;;;;1.15;74.68;98214.85;1711934;83;25722;-72
2022/11/14 02:02:07;;;;;;;79.10;51.70;;;;;;;1.14;74.69;98215.83;1711974;83;27447;-73
2022/11/14 02:04:39;;;;;;;75.45;50.35;;;;;;;1.13;74.67;98216.31;1712039;83;29086;-75
2022/11/14 02:07:08;;;;;;;81.65;55.15;;;;;;;1.12;74.63;98212.45;1712033;83;25826;-72
2022/11/14 02:09:38;;;;;;;81.02;52.43;;;;;;;1.11;74.61;98206.78;1711837;83;25859;-72
2022/11/14 02:12:08;;;;;;;78.72;50.35;;;;;;;1.10;74.65;98204.60;1711993;83;25749;-74
2022/11/14 02:14:37;;;;;;;75.25;46.48;;;;;;;1.08;74.58;98206.09;1711937;83;27462;-74
2022/11/14 02:17:04;;;;;;;66.60;40.23;;;;;;;1.07;74.65;98207.06;1711861;83;25755;-73
2022/11/14 02:19:50;;;;;;;62.43;37.67;;;;;;;1.08;74.66;98207.42;1711887;83;26295;-74
2022/11/14 02:22:17;;;;;;;62.83;39.42;;;;;;;1.06;74.59;98202.72;1695184;84;25944;-73
2022/11/14 02:24:44;;;;;;;83.95;54.30;;;;;;;1.04;74.57;98200.67;1695387;84;25712;-72
2022/11/14 02:27:14;;;;;;;84.85;54.58;;;;;;;0.99;74.55;98197.56;1669561;85;27400;-74
2022/11/14 02:29:41;;;;;;;88.17;57.23;;;;;;;0.96;74.54;98195.19;1698244;84;25565;-73
2022/11/14 02:32:08;;;;;;;82.17;53.78;;;;;;;0.96;74.60;98193.02;1670018;85;25389;-76
2022/11/14 02:34:37;;;;;;;85.77;54.95;;;;;;;0.95;74.56;98194.83;1671906;84;25739;-72
2022/11/14 02:37:05;;;;;;;86.45;52.50;;;;;;;0.93;74.53;98186.63;1652482;86;25842;-73
2022/11/14 02:39:31;;;;;;;74.47;40.73;;;;;;;0.89;74.57;98182.05;1655222;86;27509;-73
2022/11/14 02:41:58;;;;;;;62.67;37.60;;;;;;;0.89;74.75;98184.70;1655517;86;25703;-72
2022/11/14 02:44:24;;;;;;;65.03;38.35;;;;;;;0.89;74.88;98176.73;1636802;87;25859;-73
2022/11/14 02:46:51;;;;;;;77.62;45.38;;;;;;;0.90;75.00;98174.44;1688945;84;25806;-73
2022/11/14 02:49:17;;;;;;;70.83;44.10;;;;;;;0.90;74.95;98179.75;1693340;84;25631;-74
2022/11/14 02:51:44;;;;;;;69.55;44.27;;;;;;;0.89;74.99;98183.38;1693112;84;27378;-74
2022/11/14 02:54:10;;;;;;;65.80;43.28;;;;;;;0.88;75.02;98177.70;1693185;84;25837;-74
2022/11/14 02:56:37;;;;;;;68.07;42.48;;;;;;;0.91;75.02;98177.94;1693278;84;25865;-74
2022/11/14 02:59:04;;;;;;;71.45;43.63;;;;;;;0.92;75.00;98171.16;1706173;82;25753;-73
2022/11/14 03:01:30;;;;;;;71.85;47.55;;;;;;;0.91;75.04;98168.14;1745481;82;25749;-75
2022/11/14 03:03:57;;;;;;;95.42;61.98;;;;;;;0.90;75.05;98169.61;1745414;82;27366;-73
2022/11/14 03:06:23;;;;;;;78.10;45.88;;;;;;;0.90;75.11;98168.27;1745470;82;25474;-74
2022/11/14 03:08:50;;;;;;;68.85;43.38;;;;;;;0.88;75.15;98165.75;1745500;82;25729;-74
2022/11/14 03:11:17;;;;;;;71.75;45.43;;;;;;;0.83;75.24;98161.81;1745476;82;25789;-73
2022/11/14 03:13:43;;;;;;;91.08;55.92;;;;;;;0.81;75.36;98159.29;1745407;82;25399;-73
2022/11/14 03:16:13;;;;;;;74.70;45.60;;;;;;;0.77;75.40;98155.20;1745478;82;27429;-73
2022/11/14 03:18:40;;;;;;;76.55;42.20;;;;;;;0.73;75.51;98162.58;1745333;82;25712;-73
2022/11/14 03:21:13;;;;;;;70.30;39.13;;;;;;;0.76;75.59;98161.97;1745554;82;25367;-73
2022/11/14 03:23:40;;;;;;;68.52;38.60;;;;;;;0.77;75.66;98156.53;1689029;84;25748;-71
2022/11/14 03:26:09;;;;;;;76.62;37.03;;;;;;;0.77;75.71;98155.20;1691033;84;25802;-74
2022/11/14 03:28:37;;;;;;;69.80;41.75;;;;;;;0.76;75.74;98154.84;1694568;84;27449;-72
2022/11/14 03:31:05;;;;;;;69.97;42.05;;;;;;;0.76;75.74;98160.16;1694704;84;25914;-76
2022/11/14 03:33:33;;;;;;;69.50;42.35;;;;;;;0.77;75.67;98159.67;1694597;84;25747;-73
2022/11/14 03:36:00;;;;;;;73.12;41.98;;;;;;;0.76;75.65;98160.64;1694999;84;25696;-75
2022/11/14 03:38:27;;;;;;;77.62;42.78;;;;;;;0.74;75.58;98162.09;1694948;84;25865;-76
2022/11/14 03:40:54;;;;;;;70.65;42.55;;;;;;;0.73;75.53;98159.08;1694819;84;27619;-75
2022/11/14 03:43:20;;;;;;;73.83;41.10;;;;;;;0.72;75.45;98159.56;1694901;84;25570;-76
2022/11/14 03:45:47;;;;;;;64.20;41.15;;;;;;;0.69;75.34;98154.54;1694937;84;25844;-73
2022/11/14 03:48:14;;;;;;;70.10;41.25;;;;;;;0.65;75.25;98149.61;1694882;84;26007;-73
2022/11/14 03:50:42;;;;;;;66.82;41.15;;;;;;;0.60;75.20;98154.49;1695006;84;25498;-73
2022/11/14 03:53:10;;;;;;;61.75;40.40;;;;;;;0.60;75.28;98161.13;1695091;84;27460;-72
2022/11/14 03:55:39;;;;;;;69.03;39.83;;;;;;;0.55;75.27;98155.36;1694849;84;25997;-71
2022/11/14 03:58:05;;;;;;;68.55;40.08;;;;;;;0.54;75.29;98164.30;1695201;84;25727;-72
2022/11/14 04:00:32;;;;;;;63.28;39.53;;;;;;;0.53;75.29;98163.94;1695058;84;25818;-74
2022/11/14 04:02:58;;;;;;;69.22;42.03;;;;;;;0.50;75.33;98158.88;1695135;84;25846;-73
2022/11/14 04:05:25;;;;;;;66.33;38.88;;;;;;;0.51;75.35;98163.22;1695084;84;27386;-75
2022/11/14 04:07:51;;;;;;;64.03;37.70;;;;;;;0.52;75.40;98160.92;1695129;84;25603;-73
2022/11/14 04:10:18;;;;;;;53.83;32.42;;;;;;;0.50;75.23;98156.22;1694935;84;26038;-73
2022/11/14 04:12:50;;;;;;;49.08;30.50;;;;;;;0.45;75.21;98155.79;1695085;84;25779;-72
2022/11/14 04:15:17;;;;;;;50.70;30.50;;;;;;;0.42;75.34;98157.37;1695027;84;25753;-73
2022/11/14 04:17:45;;;;;;;47.25;30.27;;;;;;;0.39;75.49;98156.29;1695013;84;28287;-72
2022/11/14 04:20:13;;;;;;;53.65;36.98;;;;;;;0.41;75.48;98155.68;1710110;82;25711;-73
2022/11/14 04:22:40;;;;;;;51.83;33.92;;;;;;;0.43;75.46;98151.09;1735785;82;25246;-72
2022/11/14 04:25:08;;;;;;;51.53;34.18;;;;;;;0.41;75.42;98152.54;1735744;82;25790;-72
2022/11/14 04:27:35;;;;;;;54.88;30.92;;;;;;;0.42;75.49;98152.05;1743663;81;25987;-72
2022/11/14 04:30:03;;;;;;;51.77;31.45;;;;;;;0.44;75.60;98147.45;1744997;82;28336;-72
2022/11/14 04:32:30;;;;;;;61.75;35.05;;;;;;;0.48;75.73;98149.73;1744877;82;25767;-75
2022/11/14 04:34:57;;;;;;;56.85;33.45;;;;;;;0.52;75.71;98146.31;1745058;81;25618;-73
2022/11/14 04:37:23;;;;;;;65.75;33.30;;;;;;;0.54;75.70;98153.19;1745235;82;25894;-71
2022/11/14 04:39:50;;;;;;;51.90;34.00;;;;;;;0.56;75.70;98145.09;1745127;82;25889;-72
2022/11/14 04:42:16;;;;;;;59.48;35.38;;;;;;;0.51;75.57;98136.17;1745001;82;27310;-72
2022/11/14 04:44:43;;;;;;;58.95;33.63;;;;;;;0.42;75.56;98140.95;1744973;82;25206;-73
2022/11/14 04:47:09;;;;;;;61.55;32.38;;;;;;;0.36;75.70;98138.31;1745019;81;25690;-76
2022/11/14 04:49:36;;;;;;;61.00;32.13;;;;;;;0.35;75.87;98141.97;1745021;82;26440;-72
2022/11/14 04:52:02;;;;;;;52.70;28.10;;;;;;;0.36;75.97;98138.83;1745006;82;25443;-72
2022/11/14 04:54:29;;;;;;;50.85;29.90;;;;;;;0.35;76.02;98127.36;1745144;82;27368;-71
2022/11/14 04:56:56;;;;;;;48.70;29.50;;;;;;;0.35;76.04;98136.66;1744913;82;25842;-72
2022/11/14 04:59:24;;;;;;;39.00;25.52;;;;;;;0.36;75.97;98134.33;1745020;82;25712;-73
2022/11/14 05:01:50;;;;;;;40.30;26.07;;;;;;;0.36;75.89;98135.66;1745123;81;26282;-72
2022/11/14 05:04:18;;;;;;;35.95;24.23;;;;;;;0.38;75.80;98134.69;1744756;82;25450;-75
2022/11/14 05:06:46;;;;;;;34.88;23.45;;;;;;;0.38;75.71;98131.55;1744768;82;46097;-72
2022/11/14 05:09:12;;;;;;;39.03;23.62;;;;;;;0.38;75.63;98131.55;1744724;82;25735;-75
2022/11/14 05:11:39;;;;;;;34.18;23.10;;;;;;;0.38;75.56;98134.69;1745015;82;26491;-71
2022/11/14 05:14:05;;;;;;;38.00;24.67;;;;;;;0.35;75.54;98131.34;1745102;82;25681;-71
2022/11/14 05:16:32;;;;;;;35.35;22.73;;;;;;;0.30;75.56;98125.56;1744984;82;25664;-73
2022/11/14 05:18:59;;;;;;;42.35;23.32;;;;;;;0.30;75.47;98128.70;1745005;82;27355;-72
2022/11/14 05:21:25;;;;;;;39.00;24.82;;;;;;;0.27;75.54;98128.47;1744925;82;25610;-72
2022/11/14 05:23:52;;;;;;;40.95;25.50;;;;;;;0.25;75.52;98135.72;1744906;82;25764;-74
2022/11/14 05:26:19;;;;;;;37.40;25.23;;;;;;;0.23;75.48;98129.72;1747192;81;25725;-74
2022/11/14 05:28:45;;;;;;;40.15;25.20;;;;;;;0.23;75.52;98126.22;1755957;81;25739;-72
2022/11/14 05:31:16;;;;;;;40.35;24.90;;;;;;;0.16;75.44;98125.88;1756197;81;27453;-72
2022/11/14 05:33:44;;;;;;;35.73;24.00;;;;;;;0.12;75.44;98123.12;1756205;81;27135;-71
2022/11/14 05:36:14;;;;;;;36.83;23.83;;;;;;;0.08;75.48;98121.71;1756120;81;25768;-75
2022/11/14 05:38:41;;;;;;;35.05;23.40;;;;;;;0.08;75.53;98115.08;1755909;81;25730;-74
2022/11/14 05:41:11;;;;;;;38.13;25.12;;;;;;;0.07;75.56;98124.01;1756238;81;25739;-73
2022/11/14 05:43:39;;;;;;;37.90;24.02;;;;;;;0.08;75.57;98134.98;1756291;81;27389;-72
2022/11/14 05:46:09;;;;;;;37.15;24.57;;;;;;;0.09;75.53;98135.34;1756107;81;25734;-72
2022/11/14 05:48:36;;;;;;;40.95;24.67;;;;;;;0.11;75.65;98138.72;1756108;81;25779;-72
2022/11/14 05:51:05;;;;;;;38.10;23.52;;;;;;;0.07;75.49;98133.78;1756427;81;25684;-73
2022/11/14 05:53:33;;;;;;;33.70;22.98;;;;;;;0.01;75.48;98129.81;1756164;81;25741;-76
2022/11/14 05:56:06;;;;;;;37.83;25.50;;;;;;;-0.03;75.49;98140.34;1756197;81;27376;-72
2022/11/14 05:58:34;;;;;;;44.10;27.02;;;;;;;-0.07;75.54;98134.93;1756089;81;25499;-72
2022/11/14 06:01:04;;;;;;;42.85;30.10;;;;;;;-0.07;75.74;98136.25;1756167;81;25746;-76
2022/11/14 06:03:37;;;;;;;48.92;28.90;;;;;;;-0.04;75.80;98139.50;1756088;81;25758;-72
2022/11/14 06:06:06;;;;;;;50.30;28.55;;;;;;;-0.03;75.83;98135.05;1666463;86;25313;-72
2022/11/14 06:08:34;;;;;;;46.35;28.05;;;;;;;-0.02;75.81;98140.23;1666436;86;27379;-73
2022/11/14 06:11:14;;;;;;;47.00;28.62;;;;;;;-0.01;75.69;98146.38;1680280;85;25605;-73
2022/11/14 06:13:42;;;;;;;46.65;28.77;;;;;;;-0.02;75.63;98147.34;1603016;89;25898;-73
2022/11/14 06:16:18;;;;;;;48.70;27.45;;;;;;;0.00;75.69;98144.09;1603264;89;26519;-72
2022/11/14 06:18:45;;;;;;;43.87;26.90;;;;;;;0.00;75.64;98142.24;1578557;90;25768;-75
2022/11/14 06:21:17;;;;;;;49.18;28.02;;;;;;;-0.01;75.66;98148.55;1547494;92;28223;-71
2022/11/14 06:23:45;;;;;;;49.45;28.12;;;;;;;-0.01;75.64;98149.03;1547413;92;25812;-72
2022/11/14 06:26:25;;;;;;;48.87;30.12;;;;;;;0.02;75.67;98139.95;1554121;91;25868;-72
2022/11/14 06:28:52;;;;;;;45.55;28.17;;;;;;;0.04;75.62;98135.36;1556513;92;25758;-77
2022/11/14 06:31:21;;;;;;;39.98;26.25;;;;;;;0.04;75.64;98137.53;1556634;92;25737;-73
2022/11/14 06:33:48;;;;;;;44.95;26.80;;;;;;;0.04;75.62;98137.53;1583243;90;27818;-76
2022/11/14 06:36:15;;;;;;;49.13;27.60;;;;;;;0.05;75.65;98136.56;1553911;92;25871;-73
2022/11/14 06:38:42;;;;;;;50.90;28.12;;;;;;;0.02;75.74;98130.17;1554058;92;25431;-74
2022/11/14 06:41:19;;;;;;;47.93;27.40;;;;;;;0.03;75.74;98134.52;1556784;92;26326;-74
2022/11/14 06:43:49;;;;;;;53.85;28.60;;;;;;;0.02;75.79;98126.67;1556611;92;25898;-72
2022/11/14 06:46:19;;;;;;;54.80;33.42;;;;;;;0.00;75.87;98130.81;1556728;92;27493;-74
2022/11/14 06:48:47;;;;;;;69.53;39.33;;;;;;;0.00;75.97;98130.81;1556554;92;25948;-75
2022/11/14 06:51:17;;;;;;;74.90;41.53;;;;;;;0.03;76.16;98132.34;1583117;90;26238;-75
2022/11/14 06:53:44;;;;;;;73.33;42.65;;;;;;;0.08;76.27;98135.47;1554106;92;25885;-72
2022/11/14 06:56:14;;;;;;;70.85;38.83;;;;;;;0.13;76.44;98138.56;1567961;90;25861;-73
2022/11/14 06:58:44;;;;;;;58.17;33.53;;;;;;;0.21;76.58;98132.15;1554039;92;27429;-73
2022/11/14 07:01:18;;;;;;;57.23;34.45;;;;;;;0.27;76.53;98132.94;1564979;91;25527;-74
2022/11/14 07:03:45;;;;;;;57.08;33.65;;;;;;;0.31;76.48;98131.23;1629430;87;25907;-72
2022/11/14 07:06:19;;;;;;;67.45;35.90;;;;;;;0.38;76.47;98140.00;1633946;87;25816;-72
2022/11/14 07:08:46;;;;;;;68.05;38.15;;;;;;;0.42;76.54;98138.77;1638505;87;25756;-74
2022/11/14 07:13:44;;;;;;;66.62;38.60;;;;;;;0.53;76.75;98132.91;1666260;86;25959;-72
2022/11/14 07:16:11;;;;;;;62.13;36.58;;;;;;;0.58;76.84;98121.89;1666382;86;25879;-73
2022/11/14 07:18:37;;;;;;;65.97;36.40;;;;;;;0.63;76.91;98123.16;1666414;86;25784;-72
2022/11/14 07:21:05;;;;;;;67.87;37.05;;;;;;;0.70;76.97;98127.48;1666448;86;25844;-73
2022/11/14 07:23:34;;;;;;;67.78;36.50;;;;;;;0.74;76.99;98127.55;1666354;86;27411;-75
2022/11/14 07:26:06;;;;;;;68.45;38.95;;;;;;;0.80;77.04;98125.70;1666216;86;25312;-72
2022/11/14 07:28:38;;;;;;;58.60;36.68;;;;;;;0.84;77.06;98125.81;1659290;86;35517;-72
2022/11/14 07:31:07;;;;;;;59.25;33.95;;;;;;;0.88;77.12;98113.91;1658999;86;25737;-71
2022/11/14 07:33:34;;;;;;;55.48;32.63;;;;;;;0.94;77.17;98112.06;1658810;86;25771;-73
2022/11/14 07:36:01;;;;;;;51.37;30.82;;;;;;;1.03;77.21;98111.73;1658914;86;27498;-75
2022/11/14 07:38:31;;;;;;;55.83;33.30;;;;;;;1.12;77.34;98119.38;1658653;86;25929;-71
2022/11/14 07:41:01;;;;;;;53.38;32.35;;;;;;;1.21;77.43;98118.59;1658756;86;25423;-73
2022/11/14 07:43:29;;;;;;;52.88;30.45;;;;;;;1.31;77.54;98114.14;1613904;88;25829;-76
2022/11/14 07:46:00;;;;;;;42.78;26.35;;;;;;;1.39;77.56;98110.30;1613563;88;25789;-73
2022/11/14 07:48:28;;;;;;;40.73;26.27;;;;;;;1.50;77.55;98112.00;1577183;90;27445;-73
2022/11/14 07:51:02;;;;;;;37.93;23.07;;;;;;;1.59;77.61;98105.34;1579966;90;25774;-73
2022/11/14 07:53:29;;;;;;;44.55;24.72;;;;;;;1.69;77.62;98097.41;1584870;90;25845;-74
2022/11/14 07:56:03;;;;;;;41.53;25.72;;;;;;;1.79;77.66;98102.23;1583134;90;25867;-73
2022/11/14 07:58:30;;;;;;;45.12;29.85;;;;;;;1.90;77.67;98101.25;1567983;90;25843;-74
2022/11/14 08:01:00;;;;;;;47.35;29.95;;;;;;;2.01;77.68;98107.77;1560423;90;27393;-75
2022/11/14 08:03:28;;;;;;;40.08;25.15;;;;;;;2.13;77.82;98099.98;1560345;90;25283;-72
2022/11/14 08:06:08;;;;;;;41.00;24.92;;;;;;;2.27;77.86;98098.21;1568274;90;25899;-73
2022/11/14 08:08:35;;;;;;;40.67;23.98;;;;;;;2.42;77.83;98090.09;1581719;89;25781;-73
2022/11/14 08:11:02;;;;;;;37.25;25.23;;;;;;;2.58;77.90;98087.33;1584741;90;25736;-73
2022/11/14 08:13:30;;;;;;;34.60;22.80;;;;;;;2.75;78.00;98083.92;1584652;89;27572;-75
2022/11/14 08:15:56;;;;;;;34.60;23.25;;;;;;;2.94;78.14;98073.16;1584520;90;25913;-76
2022/11/14 08:18:23;;;;;;;33.53;22.15;;;;;;;3.11;78.18;98072.39;1584594;90;25854;-74
2022/11/14 08:20:50;;;;;;;34.40;24.27;;;;;;;3.32;78.22;98077.46;1584580;90;26597;-72
2022/11/14 08:23:16;;;;;;;35.43;24.20;;;;;;;3.49;78.13;98076.66;1584658;89;25775;-75
2022/11/14 08:25:43;;;;;;;31.30;20.70;;;;;;;3.69;78.11;98068.02;1584723;90;27446;-75
2022/11/14 08:28:10;;;;;;;31.70;21.27;;;;;;;3.87;78.00;98061.31;1584455;89;25982;-75
2022/11/14 08:30:36;;;;;;;31.77;19.05;;;;;;;4.05;77.83;98057.31;1584484;89;26991;-72
2022/11/14 08:33:05;;;;;;;25.85;18.75;;;;;;;4.21;77.77;98050.77;1584714;89;25826;-73
2022/11/14 08:35:33;;;;;;;31.82;20.20;;;;;;;4.40;77.66;98057.23;1584619;90;25546;-73
2022/11/14 08:38:01;;;;;;;31.52;19.98;;;;;;;4.54;77.25;98056.67;1511012;94;27439;-76
2022/11/14 08:40:29;;;;;;;30.95;20.37;;;;;;;4.71;77.26;98056.25;1518682;92;25794;-75
2022/11/14 08:43:00;;;;;;;35.03;21.77;;;;;;;4.91;77.31;98047.02;1525341;94;26214;-73
2022/11/14 08:45:28;;;;;;;39.85;23.55;;;;;;;5.06;77.05;98048.09;1554089;90;25763;-75
2022/11/14 08:47:55;;;;;;;33.63;23.15;;;;;;;5.22;77.01;98043.27;1575213;91;25855;-73
2022/11/14 08:50:22;;;;;;;36.00;23.62;;;;;;;5.44;77.07;98039.98;1575173;91;27399;-76
2022/11/14 08:52:50;;;;;;;36.95;22.82;;;;;;;5.63;76.77;98037.53;1575190;91;25857;-73
2022/11/14 08:55:18;;;;;;;33.38;20.85;;;;;;;5.80;76.77;98043.23;1589311;90;25840;-71
2022/11/14 08:57:45;;;;;;;28.10;19.80;;;;;;;6.06;76.65;98032.89;1589372;90;25848;-74
2022/11/14 09:00:13;;;;;;;27.87;18.00;;;;;;;6.29;76.62;98029.86;1589502;90;25863;-76
2022/11/14 09:02:40;;;;;;;23.35;16.37;;;;;;;6.45;76.01;98033.04;1589339;90;28217;-73
2022/11/14 09:05:08;;;;;;;24.75;17.37;;;;;;;6.55;75.58;98033.69;1589369;90;25816;-73
2022/11/14 09:07:35;;;;;;;30.80;18.80;;;;;;;6.65;75.49;98034.83;1589502;90;26029;-73
2022/11/14 09:10:03;;;;;;;26.30;18.23;;;;;;;6.85;75.87;98024.91;1589423;90;25669;-72
2022/11/14 09:12:30;;;;;;;26.23;18.70;;;;;;;7.13;75.79;98024.44;1589257;90;25816;-72
2022/11/14 09:14:56;;;;;;;26.30;17.95;;;;;;;7.34;75.46;98026.55;1589382;90;27253;-73
2022/11/14 09:17:23;;;;;;;24.92;14.93;;;;;;;7.58;75.11;98016.50;1589238;90;25758;-73
2022/11/14 09:19:50;;;;;;;24.63;17.17;;;;;;;7.83;74.87;98019.86;1589372;90;25961;-76
2022/11/14 09:22:17;;;;;;;25.90;16.65;;;;;;;8.07;74.64;98009.42;1589567;90;25886;-73
2022/11/14 09:24:46;;;;;;;22.48;14.45;;;;;;;8.27;74.36;98009.73;1589413;90;25928;-73
2022/11/14 09:27:13;;;;;;;21.90;14.75;;;;;;;8.47;73.93;98006.88;1636249;87;27610;-76
2022/11/14 09:29:39;;;;;;;23.32;14.07;;;;;;;8.59;73.17;98002.72;1614174;87;25933;-73
2022/11/14 09:32:06;;;;;;;21.65;14.63;;;;;;;8.74;73.23;98002.73;1636243;87;25830;-74
2022/11/14 09:34:32;;;;;;;22.65;14.18;;;;;;;9.01;73.25;98002.08;1680084;81;25779;-73
2022/11/14 09:36:59;;;;;;;17.82;13.28;;;;;;;9.39;73.20;98001.42;1759460;81;25860;-75
2022/11/14 09:39:26;;;;;;;19.90;14.20;;;;;;;9.78;72.88;97991.27;1759235;81;28078;-73
2022/11/14 09:42:39;;;;;;;18.60;13.50;;;;;;;10.18;72.41;97991.98;1759312;81;25620;-73
2022/11/14 09:45:12;;;;;;;19.40;13.10;;;;;;;10.64;71.91;97992.84;1759652;81;25756;-74
2022/11/14 09:47:43;;;;;;;16.48;13.15;;;;;;;11.31;70.55;97989.48;1746181;82;25778;-73
2022/11/14 09:50:24;;;;;;;18.32;13.20;;;;;;;11.73;69.62;97985.12;1743304;82;25757;-74
2022/11/14 09:53:17;;;;;;;21.75;13.85;;;;;;;12.04;69.05;97975.66;1681688;85;27389;-73
2022/11/14 09:55:44;;;;;;;16.60;12.40;;;;;;;12.28;68.68;97976.40;1624068;88;25793;-73
2022/11/14 09:58:18;;;;;;;20.77;13.75;;;;;;;12.45;68.18;97972.73;1624207;88;25808;-74
2022/11/14 10:01:12;;;;;;;18.52;13.30;;;;;;;12.55;67.58;97969.94;1621597;88;25868;-74
2022/11/14 10:03:56;;;;;;;21.90;13.50;;;;;;;12.62;67.20;97966.68;1575329;91;25930;-73
2022/11/14 10:07:00;;;;;;;18.57;13.53;;;;;;;12.81;66.31;97965.48;1480124;96;27090;-74
2022/11/14 10:09:56;;;;;;;21.17;13.62;;;;;;;12.95;66.19;97959.83;1480385;96;25597;-73
2022/11/14 10:12:28;;;;;;;22.95;14.55;;;;;;;13.20;65.46;97958.63;1480275;96;25902;-73
2022/11/14 10:15:19;;;;;;;19.73;14.35;;;;;;;13.38;65.29;97954.41;1480422;96;34692;-75
2022/11/14 10:18:03;;;;;;;19.95;12.88;;;;;;;13.65;64.92;97950.48;1480151;96;25849;-73
2022/11/14 10:20:54;;;;;;;16.95;12.35;;;;;;;13.95;64.32;97946.13;1480317;96;27439;-74
2022/11/14 10:23:45;;;;;;;19.75;12.33;;;;;;;14.23;63.63;97947.59;1480148;96;25371;-73
2022/11/14 10:26:30;;;;;;;22.93;11.93;;;;;;;14.45;62.87;97934.48;1494909;95;25920;-75
2022/11/14 10:29:23;;;;;;;17.07;11.93;;;;;;;14.78;62.48;97928.19;1493876;95;25840;-74
2022/11/14 10:32:42;;;;;;;15.38;12.07;;;;;;;14.98;61.86;97923.88;1518820;93;25856;-72
2022/11/14 10:35:19;;;;;;;13.95;10.68;;;;;;;15.13;60.73;97926.52;1519850;94;28223;-74
2022/11/14 10:38:17;;;;;;;16.70;11.18;;;;;;;15.38;60.64;97917.42;1519556;93;26646;-77
2022/11/14 10:40:51;;;;;;;15.63;12.28;;;;;;;15.46;59.01;97905.69;1518834;94;25892;-73
2022/11/14 10:43:44;;;;;;;14.78;11.65;;;;;;;15.32;59.17;97902.87;1520895;93;25856;-75
2022/11/14 10:46:26;;;;;;;15.68;11.55;;;;;;;15.59;58.15;97887.55;1520989;94;25883;-74
2022/11/14 10:48:53;;;;;;;15.72;11.12;;;;;;;15.76;58.91;97883.95;1520955;93;28324;-77
2022/11/14 10:51:55;;;;;;;17.35;11.68;;;;;;;16.00;58.53;97881.27;1526372;91;25687;-75
2022/11/14 10:54:44;;;;;;;12.55;10.40;;;;;;;16.09;57.30;97883.41;1534840;93;25902;-73
2022/11/14 10:57:21;;;;;;;15.65;10.68;;;;;;;16.32;57.60;97876.32;1520615;94;25874;-74
2022/11/14 10:59:48;;;;;;;15.60;10.05;;;;;;;16.58;56.76;97867.67;1484189;96;25847;-74
2022/11/14 11:02:15;;;;;;;15.65;9.88;;;;;;;16.85;56.25;97864.77;1485168;94;27427;-73
2022/11/14 11:04:43;;;;;;;13.50;10.25;;;;;;;17.10;55.63;97858.19;1523647;94;25808;-75
2022/11/14 11:13:10;;;;;;;12.88;9.00;;;;;;;17.60;54.58;97842.80;1479262;96;25859;-74
2022/11/14 11:15:41;;;;;;;12.93;8.55;;;;;;;17.72;54.28;97847.39;1476840;96;27382;-75
2022/11/14 11:18:32;;;;;;;12.43;9.35;;;;;;;17.87;54.23;97842.20;1494111;95;25406;-74
2022/11/14 11:21:09;;;;;;;12.43;8.95;;;;;;;17.99;53.34;97841.59;1567273;90;25881;-75
2022/11/14 11:23:54;;;;;;;13.13;8.60;;;;;;;18.15;52.85;97831.71;1589834;90;25785;-74
2022/11/14 11:26:25;;;;;;;11.90;8.45;;;;;;;18.29;52.50;97831.13;1591865;90;25943;-74
2022/11/14 11:29:14;;;;;;;11.75;8.13;;;;;;;18.38;52.07;97827.42;1584791;90;28313;-74
2022/11/14 11:31:51;;;;;;;13.60;8.10;;;;;;;18.53;51.31;97830.92;1583010;90;25761;-76
2022/11/14 11:34:31;;;;;;;11.10;8.78;;;;;;;18.67;50.83;97824.05;1585228;90;25821;-74
2022/11/14 11:37:30;;;;;;;16.40;9.35;;;;;;;18.74;50.65;97823.84;1553535;92;25784;-74
2022/11/14 11:40:01;;;;;;;14.25;8.73;;;;;;;18.69;49.96;97818.62;1535430;93;25679;-76
2022/11/14 11:42:33;;;;;;;15.88;9.68;;;;;;;18.59;49.88;97810.28;1535610;93;27474;-74
2022/11/14 11:45:04;;;;;;;11.05;8.08;;;;;;;18.59;49.74;97808.09;1536192;92;35360;-74
2022/11/14 11:47:35;;;;;;;13.58;8.83;;;;;;;18.60;49.93;97806.98;1535803;93;25884;-72